createdAt,value
2023-04-05T00:02:06.816Z,-3.98
2023-04-05T00:04:36.508Z,-4.00
2023-04-05T00:07:08.205Z,-4.00
2023-04-05T00:09:37.678Z,-4.02
2023-04-05T00:12:09.468Z,-4.03
2023-04-05T00:14:38.859Z,-4.06
2023-04-05T00:17:10.897Z,-4.06
2023-04-05T00:19:43.109Z,-4.08
2023-04-05T00:22:12.879Z,-4.08
2023-04-05T00:24:43.381Z,-4.10
2023-04-05T00:27:14.352Z,-4.10
2023-04-05T00:29:43.802Z,-4.15
2023-04-05T00:32:13.465Z,-4.17
2023-04-05T00:34:42.925Z,-4.19
2023-04-05T00:37:13.142Z,-4.22
2023-04-05T00:39:42.744Z,-4.26
2023-04-05T00:42:13.517Z,-4.27
2023-04-05T00:44:42.909Z,-4.28
2023-04-05T00:47:12.543Z,-4.31
2023-04-05T00:49:43.090Z,-4.36
2023-04-05T00:52:13.307Z,-4.39
2023-04-05T00:54:43.665Z,-4.45
2023-04-05T00:57:15.009Z,-4.47
2023-04-05T00:59:44.787Z,-4.49
2023-04-05T01:02:20.852Z,-4.53
2023-04-05T01:05:01.536Z,-4.55
2023-04-05T01:07:42.243Z,-4.57
2023-04-05T01:10:15.321Z,-4.59
2023-04-05T01:12:47.520Z,-4.61
2023-04-05T01:15:20.588Z,-4.64
2023-04-05T01:17:54.349Z,-4.64
2023-04-05T01:20:28.456Z,-4.64
2023-04-05T01:23:37.584Z,-4.66
2023-04-05T01:26:50.189Z,-4.66
2023-04-05T01:29:59.100Z,-4.66
2023-04-05T01:32:56.632Z,-4.64
2023-04-05T01:35:38.831Z,-4.62
2023-04-05T01:38:13.206Z,-4.61
2023-04-05T01:40:43.648Z,-4.59
2023-04-05T01:43:18.135Z,-4.59
2023-04-05T01:45:49.245Z,-4.58
2023-04-05T01:48:18.893Z,-4.57
2023-04-05T01:50:48.348Z,-4.57
2023-04-05T01:53:18.000Z,-4.56
2023-04-05T01:55:47.453Z,-4.53
2023-04-05T01:58:16.885Z,-4.52
2023-04-05T02:00:47.826Z,-4.51
2023-04-05T02:03:17.383Z,-4.51
2023-04-05T02:05:47.064Z,-4.51
2023-04-05T02:08:16.554Z,-4.52
2023-04-05T02:10:46.431Z,-4.50
2023-04-05T02:13:16.315Z,-4.49
2023-04-05T02:15:51.215Z,-4.48
2023-04-05T02:18:22.209Z,-4.50
2023-04-05T02:20:52.703Z,-4.48
2023-04-05T02:23:22.174Z,-4.47
2023-04-05T02:25:51.604Z,-4.47
2023-04-05T02:28:21.028Z,-4.49
2023-04-05T02:30:51.925Z,-4.48
2023-04-05T02:33:22.779Z,-4.49
2023-04-05T02:35:54.804Z,-4.49
2023-04-05T02:38:24.365Z,-4.49
2023-04-05T02:40:53.740Z,-4.47
2023-04-05T02:43:23.199Z,-4.46
2023-04-05T02:45:54.301Z,-4.46
2023-04-05T02:48:23.859Z,-4.44
2023-04-05T02:50:55.001Z,-4.45
2023-04-05T02:53:27.192Z,-4.44
2023-04-05T02:56:02.509Z,-4.44
2023-04-05T02:58:33.699Z,-4.40
2023-04-05T03:01:07.399Z,-4.37
2023-04-05T03:03:38.040Z,-4.32
2023-04-05T03:06:10.934Z,-4.27
2023-04-05T03:08:51.815Z,-4.19
2023-04-05T03:11:25.002Z,-4.19
2023-04-05T03:14:00.596Z,-4.17
2023-04-05T03:16:51.710Z,-4.20
2023-04-05T03:19:27.511Z,-4.18
2023-04-05T03:22:03.293Z,-4.19
2023-04-05T03:24:36.470Z,-4.21
2023-04-05T03:27:08.701Z,-4.23
2023-04-05T03:29:45.468Z,-4.28
2023-04-05T03:32:20.007Z,-4.28
2023-04-05T03:34:55.298Z,-4.29
2023-04-05T03:37:25.507Z,-4.32
2023-04-05T03:40:07.025Z,-4.33
2023-04-05T03:42:37.730Z,-4.35
2023-04-05T03:45:09.032Z,-4.37
2023-04-05T03:47:39.846Z,-4.41
2023-04-05T03:50:11.017Z,-4.44
2023-04-05T03:52:40.628Z,-4.45
2023-04-05T03:55:10.801Z,-4.48
2023-04-05T03:57:43.214Z,-4.52
2023-04-05T04:00:24.738Z,-4.58
2023-04-05T04:03:14.020Z,-4.60
2023-04-05T04:05:47.327Z,-4.59
2023-04-05T04:08:16.782Z,-4.63
2023-04-05T04:10:46.289Z,-4.68
2023-04-05T04:13:23.731Z,-4.71
2023-04-05T04:16:02.383Z,-4.74
2023-04-05T04:18:54.320Z,-4.79
2023-04-05T04:21:39.470Z,-4.85
2023-04-05T04:24:36.388Z,-4.90
2023-04-05T04:27:39.088Z,-4.98
2023-04-05T04:30:22.621Z,-5.00
2023-04-05T04:33:12.395Z,-5.07
2023-04-05T04:35:55.190Z,-5.13
2023-04-05T04:38:44.295Z,-5.15
2023-04-05T04:41:48.955Z,-5.17
2023-04-05T04:44:36.778Z,-5.21
2023-04-05T04:47:23.013Z,-5.22
2023-04-05T04:50:01.528Z,-5.19
2023-04-05T04:52:35.476Z,-5.18
2023-04-05T04:55:05.685Z,-5.18
2023-04-05T04:57:35.206Z,-5.18
2023-04-05T05:00:12.766Z,-5.21
2023-04-05T05:02:44.028Z,-5.23
2023-04-05T05:05:16.207Z,-5.25
2023-04-05T05:07:47.021Z,-5.29
2023-04-05T05:10:17.063Z,-5.32
2023-04-05T05:12:48.601Z,-5.33
2023-04-05T05:15:18.621Z,-5.32
2023-04-05T05:17:52.888Z,-5.31
2023-04-05T05:20:23.160Z,-5.32
2023-04-05T05:22:54.012Z,-5.31
2023-04-05T05:25:23.464Z,-5.27
2023-04-05T05:27:52.876Z,-5.25
2023-04-05T05:30:25.936Z,-5.22
2023-04-05T05:32:55.420Z,-5.21
2023-04-05T05:35:24.877Z,-5.18
2023-04-05T05:37:56.020Z,-5.15
2023-04-05T05:40:26.834Z,-5.10
2023-04-05T05:42:56.285Z,-5.03
2023-04-05T05:45:25.750Z,-4.95
2023-04-05T05:47:56.114Z,-4.90
2023-04-05T05:50:25.610Z,-4.82
2023-04-05T05:52:56.756Z,-4.72
2023-04-05T05:55:26.662Z,-4.64
2023-04-05T05:57:56.105Z,-4.54
2023-04-05T06:00:25.759Z,-4.45
2023-04-05T06:02:55.490Z,-4.34
2023-04-05T06:05:25.552Z,-4.24
2023-04-05T06:07:56.328Z,-4.15
2023-04-05T06:10:25.773Z,-4.01
2023-04-05T06:12:55.152Z,-3.92
2023-04-05T06:15:24.562Z,-3.82
2023-04-05T06:17:53.976Z,-3.69
2023-04-05T06:20:23.388Z,-3.57
2023-04-05T06:22:52.888Z,-3.46
2023-04-05T06:25:23.697Z,-3.36
2023-04-05T06:27:53.116Z,-3.24
2023-04-05T06:30:22.954Z,-3.15
2023-04-05T06:32:54.553Z,-3.05
2023-04-05T06:35:25.130Z,-2.94
2023-04-05T06:37:54.780Z,-2.84
2023-04-05T06:40:25.572Z,-2.73
2023-04-05T06:42:55.726Z,-2.61
2023-04-05T06:45:31.401Z,-2.51
2023-04-05T06:48:00.946Z,-2.39
2023-04-05T06:50:30.426Z,-2.26
2023-04-05T06:52:59.966Z,-2.17
2023-04-05T06:55:31.171Z,-2.06
2023-04-05T06:58:00.621Z,-1.94
2023-04-05T07:00:30.123Z,-1.84
2023-04-05T07:02:59.590Z,-1.70
2023-04-05T07:05:29.047Z,-1.58
2023-04-05T07:07:58.400Z,-1.45
2023-04-05T07:10:27.786Z,-1.33
2023-04-05T07:12:58.591Z,-1.19
2023-04-05T07:15:28.232Z,-1.09
2023-04-05T07:17:57.674Z,-1.00
2023-04-05T07:20:27.166Z,-0.90
2023-04-05T07:22:57.864Z,-0.79
2023-04-05T07:25:27.690Z,-0.70
2023-04-05T07:27:58.511Z,-0.58
2023-04-05T07:30:28.946Z,-0.50
2023-04-05T07:32:58.395Z,-0.38
2023-04-05T07:35:28.565Z,-0.26
2023-04-05T07:37:57.983Z,-0.14
2023-04-05T07:40:27.752Z,-0.05
2023-04-05T07:42:58.541Z,0.05
2023-04-05T07:45:27.984Z,0.20
2023-04-05T07:47:57.439Z,0.31
2023-04-05T07:50:28.160Z,0.48
2023-04-05T07:52:57.514Z,0.61
2023-04-05T07:55:27.340Z,0.72
2023-04-05T07:57:58.390Z,0.83
2023-04-05T08:00:27.923Z,0.89
2023-04-05T08:03:01.314Z,1.02
2023-04-05T08:05:31.622Z,1.14
2023-04-05T08:08:01.363Z,1.23
2023-04-05T08:10:30.875Z,1.32
2023-04-05T08:13:01.766Z,1.44
2023-04-05T08:15:31.348Z,1.56
2023-04-05T08:18:00.887Z,1.68
2023-04-05T08:20:30.354Z,1.83
2023-04-05T08:22:59.874Z,1.97
2023-04-05T08:25:29.273Z,2.13
2023-04-05T08:27:58.634Z,2.23
2023-04-05T08:30:29.578Z,2.32
2023-04-05T08:32:59.082Z,2.41
2023-04-05T08:35:28.573Z,2.56
2023-04-05T08:37:58.137Z,2.65
2023-04-05T08:40:42.654Z,2.82
2023-04-05T08:43:20.472Z,3.00
2023-04-05T08:45:54.287Z,3.17
2023-04-05T08:48:23.808Z,3.27
2023-04-05T08:50:55.617Z,3.39
2023-04-05T08:53:25.121Z,3.52
2023-04-05T08:55:58.197Z,3.70
2023-04-05T08:58:29.807Z,3.83
2023-04-05T09:01:01.690Z,3.89
2023-04-05T09:03:37.998Z,3.80
2023-04-05T09:06:11.847Z,3.92
2023-04-05T09:08:42.163Z,4.02
2023-04-05T09:11:13.490Z,4.18
2023-04-05T09:13:42.867Z,4.33
2023-04-05T09:16:16.015Z,4.43
2023-04-05T09:18:45.760Z,4.54
2023-04-05T09:21:16.247Z,4.71
2023-04-05T09:23:56.346Z,4.80
2023-04-05T09:26:27.423Z,4.83
2023-04-05T09:29:00.841Z,4.85
2023-04-05T09:31:37.207Z,4.90
2023-04-05T09:34:21.504Z,4.88
2023-04-05T09:36:51.373Z,4.92
2023-04-05T09:39:31.550Z,4.94
2023-04-05T09:42:11.957Z,4.87
2023-04-05T09:45:01.440Z,5.03
2023-04-05T09:47:35.328Z,5.16
2023-04-05T09:50:21.918Z,5.38
2023-04-05T09:52:52.512Z,5.42
2023-04-05T09:55:29.871Z,5.52
2023-04-05T09:57:59.422Z,5.58
2023-04-05T10:00:31.154Z,5.59
2023-04-05T10:03:02.120Z,5.62
2023-04-05T10:05:32.548Z,5.79
2023-04-05T10:08:02.689Z,5.99
2023-04-05T10:10:37.061Z,6.16
2023-04-05T10:13:07.324Z,6.12
2023-04-05T10:15:37.314Z,6.05
2023-04-05T10:18:19.248Z,5.93
2023-04-05T10:20:53.373Z,5.94
2023-04-05T10:23:29.339Z,6.05
2023-04-05T10:26:14.202Z,6.11
2023-04-05T10:28:49.056Z,6.16
2023-04-05T10:31:37.274Z,6.05
2023-04-05T10:34:28.067Z,6.23
2023-04-05T10:37:02.610Z,6.12
2023-04-05T10:39:42.052Z,6.16
2023-04-05T10:42:22.166Z,6.01
2023-04-05T10:44:55.611Z,6.14
2023-04-05T10:47:28.062Z,6.27
2023-04-05T10:50:05.218Z,6.27
2023-04-05T10:52:35.563Z,6.07
2023-04-05T10:55:05.888Z,6.17
2023-04-05T10:57:36.091Z,6.32
2023-04-05T11:00:08.870Z,6.43
2023-04-05T11:02:38.947Z,6.45
2023-04-05T11:05:32.991Z,6.60
2023-04-05T11:08:07.867Z,6.59
2023-04-05T11:10:40.697Z,6.76
2023-04-05T11:13:11.836Z,6.89
2023-04-05T11:15:41.640Z,6.93
2023-04-05T11:18:13.530Z,7.00
2023-04-05T11:20:55.938Z,6.73
2023-04-05T11:23:27.031Z,6.91
2023-04-05T11:26:05.263Z,7.25
2023-04-05T11:28:39.597Z,7.48
2023-04-05T11:31:19.155Z,7.39
2023-04-05T11:34:11.101Z,7.20
2023-04-05T11:36:47.880Z,7.23
2023-04-05T11:39:30.870Z,7.39
2023-04-05T11:42:04.394Z,7.67
2023-04-05T11:44:54.316Z,7.72
2023-04-05T11:47:23.802Z,7.76
2023-04-05T11:49:53.890Z,7.92
2023-04-05T11:52:24.695Z,8.21
2023-04-05T11:54:54.065Z,8.65
2023-04-05T11:57:25.433Z,9.02
2023-04-05T11:59:55.190Z,9.36
2023-04-05T12:02:25.364Z,9.48
2023-04-05T12:04:58.875Z,9.64
2023-04-05T12:07:36.820Z,9.75
2023-04-05T12:10:11.692Z,9.99
2023-04-05T12:12:45.325Z,10.09
2023-04-05T12:15:18.754Z,10.26
2023-04-05T12:17:51.004Z,10.50
2023-04-05T12:20:24.844Z,10.31
2023-04-05T12:22:57.986Z,10.50
2023-04-05T12:25:27.611Z,10.61
2023-04-05T12:27:56.928Z,10.66
2023-04-05T12:30:36.138Z,10.67
2023-04-05T12:33:10.371Z,10.35
2023-04-05T12:35:40.982Z,10.08
2023-04-05T12:38:17.436Z,9.86
2023-04-05T12:40:46.982Z,9.83
2023-04-05T12:43:19.929Z,10.09
2023-04-05T12:45:50.832Z,10.39
2023-04-05T12:48:25.667Z,10.84
2023-04-05T12:50:55.192Z,11.06
2023-04-05T12:53:28.737Z,11.34
2023-04-05T12:55:59.550Z,11.65
2023-04-05T12:58:37.085Z,11.56
2023-04-05T13:01:07.121Z,11.68
2023-04-05T13:03:36.725Z,11.85
2023-04-05T13:06:06.301Z,12.10
2023-04-05T13:08:37.055Z,11.68
2023-04-05T13:11:06.742Z,11.86
2023-04-05T13:13:36.080Z,12.00
2023-04-05T13:16:05.970Z,12.19
2023-04-05T13:18:35.572Z,12.59
2023-04-05T13:21:07.706Z,12.80
2023-04-05T13:23:40.596Z,13.10
2023-04-05T13:26:10.294Z,13.10
2023-04-05T13:28:39.677Z,13.24
2023-04-05T13:31:09.193Z,13.38
2023-04-05T13:33:38.645Z,13.43
2023-04-05T13:36:11.023Z,13.68
2023-04-05T13:38:42.420Z,13.95
2023-04-05T13:41:11.884Z,14.10
2023-04-05T13:43:41.331Z,14.35
2023-04-05T13:46:10.941Z,14.45
2023-04-05T13:48:40.352Z,14.82
2023-04-05T13:51:09.801Z,14.82
2023-04-05T13:53:39.265Z,14.85
2023-04-05T13:56:10.289Z,14.84
2023-04-05T13:58:39.882Z,15.03
2023-04-05T14:01:09.267Z,14.89
2023-04-05T14:03:38.781Z,14.66
2023-04-05T14:06:08.922Z,13.89
2023-04-05T14:08:38.348Z,13.12
2023-04-05T14:11:09.652Z,12.52
2023-04-05T14:13:39.137Z,12.56
2023-04-05T14:16:08.821Z,13.01
2023-04-05T14:18:38.468Z,13.49
2023-04-05T14:21:08.242Z,13.96
2023-04-05T14:23:38.032Z,14.07
2023-04-05T14:26:09.292Z,14.43
2023-04-05T14:28:38.939Z,14.55
2023-04-05T14:31:08.780Z,14.79
2023-04-05T14:33:38.341Z,14.93
2023-04-05T14:36:08.328Z,15.00
2023-04-05T14:38:37.967Z,14.90
2023-04-05T14:41:10.180Z,15.00
2023-04-05T14:43:40.607Z,15.06
2023-04-05T14:46:10.296Z,15.08
2023-04-05T14:48:39.986Z,15.16
2023-04-05T14:51:09.650Z,15.02
2023-04-05T14:53:39.315Z,14.34
2023-04-05T14:56:10.958Z,14.08
2023-04-05T14:58:40.734Z,14.23
2023-04-05T15:01:11.026Z,14.03
2023-04-05T15:03:40.916Z,14.27
2023-04-05T15:06:10.795Z,13.76
2023-04-05T15:08:40.613Z,14.03
2023-04-05T15:11:11.659Z,14.51
2023-04-05T15:13:41.331Z,15.01
2023-04-05T15:16:11.503Z,15.29
2023-04-05T15:18:41.615Z,15.39
2023-04-05T15:21:11.708Z,15.62
2023-04-05T15:23:41.390Z,15.54
2023-04-05T15:26:12.578Z,15.50
2023-04-05T15:28:42.210Z,15.67
2023-04-05T15:31:12.017Z,15.66
2023-04-05T15:33:41.684Z,15.62
2023-04-05T15:36:11.674Z,15.60
2023-04-05T15:38:41.410Z,15.34
2023-04-05T15:41:12.364Z,15.32
2023-04-05T15:43:41.957Z,15.19
2023-04-05T15:46:11.912Z,14.67
2023-04-05T15:48:43.671Z,14.02
2023-04-05T15:51:13.265Z,13.93
2023-04-05T15:53:42.900Z,13.55
2023-04-05T15:56:13.900Z,13.66
2023-04-05T15:58:43.595Z,13.76
2023-04-05T16:01:13.400Z,13.84
2023-04-05T16:03:43.682Z,13.71
2023-04-05T16:06:13.342Z,13.48
2023-04-05T16:08:43.065Z,13.41
2023-04-05T16:11:14.144Z,13.30
2023-04-05T16:13:43.760Z,12.80
2023-04-05T16:16:20.484Z,12.63
2023-04-05T16:18:54.198Z,12.57
2023-04-05T16:21:23.999Z,12.41
2023-04-05T16:23:53.668Z,12.14
2023-04-05T16:26:24.624Z,12.02
2023-04-05T16:28:54.752Z,11.76
2023-04-05T16:31:24.654Z,11.47
2023-04-05T16:33:54.602Z,11.17
2023-04-05T16:36:24.290Z,10.84
2023-04-05T16:38:53.917Z,10.53
2023-04-05T16:41:24.916Z,10.28
2023-04-05T16:43:54.506Z,9.91
2023-04-05T16:46:24.157Z,9.69
2023-04-05T16:48:53.847Z,9.48
2023-04-05T16:51:23.546Z,9.19
2023-04-05T16:53:53.234Z,8.87
2023-04-05T16:56:24.587Z,8.66
2023-04-05T16:58:55.064Z,8.48
2023-04-05T17:01:24.958Z,8.23
2023-04-05T17:03:54.621Z,8.02
2023-04-05T17:06:24.249Z,7.84
2023-04-05T17:08:53.917Z,7.66
2023-04-05T17:11:24.924Z,7.46
2023-04-05T17:13:54.592Z,7.35
2023-04-05T17:16:25.174Z,7.21
2023-04-05T17:18:54.899Z,7.13
2023-04-05T17:21:25.829Z,7.06
2023-04-05T17:23:55.915Z,6.99
2023-04-05T17:26:27.126Z,6.89
2023-04-05T17:28:56.799Z,6.79
2023-04-05T17:31:26.904Z,6.69
2023-04-05T17:33:56.553Z,6.54
2023-04-05T17:36:27.350Z,6.35
2023-04-05T17:38:57.044Z,6.21
2023-04-05T17:41:28.094Z,6.08
2023-04-05T17:43:58.518Z,5.94
2023-04-05T17:46:40.234Z,5.81
2023-04-05T17:49:12.604Z,5.68
2023-04-05T17:51:42.388Z,5.56
2023-04-05T17:54:12.526Z,5.47
2023-04-05T17:56:43.528Z,5.39
2023-04-05T17:59:13.113Z,5.31
2023-04-05T18:01:42.958Z,5.18
2023-04-05T18:04:12.826Z,5.10
2023-04-05T18:06:42.586Z,4.98
2023-04-05T18:09:12.210Z,4.87
2023-04-05T18:11:43.150Z,4.69
2023-04-05T18:14:12.810Z,4.50
2023-04-05T18:16:42.539Z,4.28
2023-04-05T18:19:12.147Z,4.06
2023-04-05T18:21:41.776Z,3.84
2023-04-05T18:24:12.909Z,3.62
2023-04-05T18:26:45.099Z,3.43
2023-04-05T18:29:14.812Z,3.21
2023-04-05T18:31:44.470Z,3.03
2023-04-05T18:34:14.116Z,2.89
2023-04-05T18:36:43.870Z,2.71
2023-04-05T18:39:13.899Z,2.60
2023-04-05T18:41:44.905Z,2.47
2023-04-05T18:44:14.687Z,2.31
2023-04-05T18:46:45.107Z,2.21
2023-04-05T18:49:15.870Z,2.09
2023-04-05T18:51:46.106Z,1.99
2023-04-05T18:54:18.316Z,1.91
2023-04-05T18:56:49.349Z,1.81
2023-04-05T18:59:19.840Z,1.69
2023-04-05T19:01:49.676Z,1.59
2023-04-05T19:04:19.339Z,1.50
2023-04-05T19:06:49.035Z,1.41
2023-04-05T19:09:19.627Z,1.32
2023-04-05T19:11:50.920Z,1.23
2023-04-05T19:14:20.817Z,1.14
2023-04-05T19:16:50.582Z,1.02
2023-04-05T19:19:20.187Z,0.96
2023-04-05T19:21:49.834Z,0.91
2023-04-05T19:24:20.842Z,0.84
2023-04-05T19:26:52.043Z,0.76
2023-04-05T19:29:21.786Z,0.67
2023-04-05T19:31:51.921Z,0.59
2023-04-05T19:34:21.670Z,0.50
2023-04-05T19:36:51.283Z,0.39
2023-04-05T19:39:25.461Z,0.32
2023-04-05T19:41:57.730Z,0.23
2023-04-05T19:44:51.576Z,0.13
2023-04-05T19:47:22.261Z,0.06
2023-04-05T19:49:55.940Z,0.02
2023-04-05T19:52:46.463Z,-0.06
2023-04-05T19:55:33.789Z,-0.12
2023-04-05T19:58:10.361Z,-0.17
2023-04-05T20:00:48.458Z,-0.26
2023-04-05T20:03:30.469Z,-0.32
2023-04-05T20:06:10.307Z,-0.38
2023-04-05T20:08:42.998Z,-0.44
2023-04-05T20:11:15.750Z,-0.50
2023-04-05T20:13:50.830Z,-0.56
2023-04-05T20:16:27.560Z,-0.60
2023-04-05T20:19:03.010Z,-0.66
2023-04-05T20:21:33.331Z,-0.71
2023-04-05T20:24:04.404Z,-0.77
2023-04-05T20:26:34.653Z,-0.82
2023-04-05T20:29:10.157Z,-0.88
2023-04-05T20:31:40.288Z,-0.91
2023-04-05T20:34:12.756Z,-0.95
2023-04-05T20:36:51.274Z,-0.99
2023-04-05T20:39:23.522Z,-1.03
2023-04-05T20:41:53.484Z,-1.05
2023-04-05T20:44:25.210Z,-1.08
2023-04-05T20:46:57.724Z,-1.10
2023-04-05T20:49:29.068Z,-1.14
2023-04-05T20:51:58.838Z,-1.18
2023-04-05T20:54:28.689Z,-1.23
2023-04-05T20:56:58.368Z,-1.27
2023-04-05T20:59:29.360Z,-1.28
2023-04-05T21:01:59.078Z,-1.30
2023-04-05T21:04:30.124Z,-1.34
2023-04-05T21:06:59.861Z,-1.35
2023-04-05T21:09:30.115Z,-1.37
2023-04-05T21:11:59.985Z,-1.40
2023-04-05T21:14:31.040Z,-1.43
2023-04-05T21:17:00.661Z,-1.45
2023-04-05T21:19:30.454Z,-1.46
2023-04-05T21:22:00.228Z,-1.47
2023-04-05T21:24:29.878Z,-1.52
2023-04-05T21:26:59.570Z,-1.54
2023-04-05T21:29:30.571Z,-1.57
2023-04-05T21:32:00.245Z,-1.60
2023-04-05T21:34:29.877Z,-1.61
2023-04-05T21:36:59.511Z,-1.64
2023-04-05T21:39:29.160Z,-1.66
2023-04-05T21:41:59.215Z,-1.70
2023-04-05T21:44:30.286Z,-1.76
2023-04-05T21:47:00.201Z,-1.81
2023-04-05T21:49:29.902Z,-1.86
2023-04-05T21:51:59.535Z,-1.90
2023-04-05T21:54:29.138Z,-1.94
2023-04-05T21:56:58.809Z,-1.97
2023-04-05T21:59:29.895Z,-2.01
2023-04-05T22:01:59.715Z,-2.03
2023-04-05T22:04:30.006Z,-2.06
2023-04-05T22:06:59.672Z,-2.08
2023-04-05T22:09:34.732Z,-2.09
2023-04-05T22:12:05.173Z,-2.08
2023-04-05T22:14:36.187Z,-2.08
2023-04-05T22:17:05.916Z,-2.10
2023-04-05T22:19:35.621Z,-2.13
2023-04-05T22:22:05.584Z,-2.17
2023-04-05T22:24:35.152Z,-2.19
2023-04-05T22:27:04.833Z,-2.22
2023-04-05T22:29:36.094Z,-2.23
2023-04-05T22:32:06.489Z,-2.24
2023-04-05T22:34:36.251Z,-2.25
2023-04-05T22:37:05.869Z,-2.26
2023-04-05T22:39:35.584Z,-2.25
2023-04-05T22:42:05.895Z,-2.27
2023-04-05T22:44:36.894Z,-2.31
2023-04-05T22:47:06.631Z,-2.34
2023-04-05T22:49:36.700Z,-2.37
2023-04-05T22:52:06.506Z,-2.39
2023-04-05T22:54:36.204Z,-2.41
2023-04-05T22:57:05.878Z,-2.45
2023-04-05T22:59:42.732Z,-2.49
2023-04-05T23:02:12.539Z,-2.50
2023-04-05T23:04:42.581Z,-2.53
2023-04-05T23:07:12.297Z,-2.56
2023-04-05T23:09:41.992Z,-2.56
2023-04-05T23:12:11.655Z,-2.59
2023-04-05T23:14:42.707Z,-2.63
2023-04-05T23:17:12.388Z,-2.67
2023-04-05T23:19:42.038Z,-2.72
2023-04-05T23:22:11.884Z,-2.77
2023-04-05T23:24:41.485Z,-2.79
2023-04-05T23:27:11.147Z,-2.82
2023-04-05T23:29:42.126Z,-2.87
2023-04-05T23:32:12.818Z,-2.88
2023-04-05T23:34:42.440Z,-2.88
2023-04-05T23:37:12.223Z,-2.90
2023-04-05T23:39:41.958Z,-2.92
2023-04-05T23:42:11.784Z,-2.95
2023-04-05T23:44:42.760Z,-2.98
2023-04-05T23:47:12.346Z,-3.02
2023-04-05T23:49:42.024Z,-3.07
2023-04-05T23:52:11.705Z,-3.10
2023-04-05T23:54:41.509Z,-3.14
2023-04-05T23:57:11.238Z,-3.15
2023-04-05T23:59:42.278Z,-3.16
